Time;durP1;ratioP1;P1;durP2;ratioP2;P2;SDS_P1;SDS_P2;PMS_P1;PMS_P2;Temp;Humidity;BMP_temperature;BMP_pressure;BME280_temperature;BME280_humidity;BME280_pressure;Samples;Min_cycle;Max_cycle;Signal;HPM_P1;HPM_P2
2023/01/23 00:02:13;;;;;;;1.80;0.70;;;23.30;99.90;;;;;;5051998;28;20590;-81
2023/01/23 00:04:44;;;;;;;2.60;0.70;;;23.30;99.90;;;;;;5038080;28;20508;-81
2023/01/23 00:07:15;;;;;;;1.45;0.60;;;23.30;99.90;;;;;;5047062;28;20200;-81
2023/01/23 00:09:48;;;;;;;1.63;0.70;;;23.30;99.90;;;;;;5051492;28;20655;-80
2023/01/23 00:12:19;;;;;;;1.38;0.63;;;23.30;99.90;;;;;;5057565;28;20255;-81
2023/01/23 00:14:50;;;;;;;3.00;0.80;;;23.30;99.90;;;;;;5062107;28;20207;-82
2023/01/23 00:17:20;;;;;;;4.10;0.60;;;23.30;99.90;;;;;;5045347;28;20582;-82
2023/01/23 00:19:54;;;;;;;2.38;0.73;;;23.30;99.90;;;;;;5060701;28;20184;-82
2023/01/23 00:22:27;;;;;;;2.00;0.70;;;23.30;99.90;;;;;;5056042;28;20580;-82
2023/01/23 00:25:00;;;;;;;1.67;0.60;;;23.30;99.90;;;;;;5052097;28;20192;-82
2023/01/23 00:27:31;;;;;;;2.72;0.70;;;23.20;99.90;;;;;;5051256;28;20195;-81
2023/01/23 00:30:04;;;;;;;1.92;0.70;;;23.30;99.90;;;;;;5061318;28;20199;-82
2023/01/23 00:32:35;;;;;;;2.25;0.60;;;23.30;99.90;;;;;;5065190;28;20197;-81
2023/01/23 00:35:06;;;;;;;2.25;0.90;;;23.40;99.90;;;;;;5048728;28;20196;-82
2023/01/23 00:37:37;;;;;;;2.03;1.00;;;23.40;99.90;;;;;;5050627;28;20207;-82
2023/01/23 00:40:12;;;;;;;2.78;0.80;;;23.40;99.90;;;;;;5067794;28;20226;-81
2023/01/23 00:42:43;;;;;;;2.95;0.80;;;23.50;99.90;;;;;;5024586;28;20315;-82
2023/01/23 00:45:14;;;;;;;3.10;0.68;;;23.50;99.90;;;;;;5047974;28;20643;-82
2023/01/23 00:47:45;;;;;;;2.03;0.60;;;23.50;99.90;;;;;;5054702;28;20208;-81
2023/01/23 00:50:16;;;;;;;3.42;1.10;;;23.50;99.90;;;;;;5052686;28;20198;-82
2023/01/23 00:52:47;;;;;;;3.47;0.75;;;23.50;99.90;;;;;;5043178;28;20192;-82
2023/01/23 00:55:20;;;;;;;1.77;0.80;;;23.50;99.90;;;;;;5050461;28;20589;-81
2023/01/23 00:57:51;;;;;;;3.67;0.80;;;23.60;99.90;;;;;;5050847;28;20203;-81
2023/01/23 01:00:22;;;;;;;4.32;0.70;;;23.50;99.90;;;;;;5066277;28;20729;-81
2023/01/23 01:02:54;;;;;;;2.70;0.73;;;23.50;99.90;;;;;;5052819;28;20791;-81
2023/01/23 01:05:26;;;;;;;3.58;1.17;;;23.60;99.90;;;;;;5063876;28;20197;-81
2023/01/23 01:07:57;;;;;;;1.98;1.00;;;23.60;99.90;;;;;;5051413;28;20284;-81
2023/01/23 01:10:31;;;;;;;2.70;0.70;;;23.60;99.90;;;;;;5057290;28;20252;-81
2023/01/23 01:13:07;;;;;;;1.30;0.50;;;23.60;99.90;;;;;;5046683;28;20653;-80
2023/01/23 01:15:38;;;;;;;3.17;0.70;;;23.70;99.90;;;;;;5047593;28;20633;-80
2023/01/23 01:18:09;;;;;;;6.25;1.27;;;23.70;99.90;;;;;;5041811;28;20288;-80
2023/01/23 01:20:43;;;;;;;4.47;0.90;;;23.80;99.90;;;;;;5037485;28;20212;-80
2023/01/23 01:23:14;;;;;;;2.72;0.68;;;23.70;99.90;;;;;;5053231;28;20241;-81
2023/01/23 01:25:48;;;;;;;2.00;0.65;;;23.80;99.90;;;;;;5063888;28;20202;-80
2023/01/23 01:28:19;;;;;;;3.28;0.70;;;23.80;99.90;;;;;;5050958;28;20197;-80
2023/01/23 01:30:50;;;;;;;2.22;0.68;;;23.70;99.90;;;;;;5038505;28;20652;-80
2023/01/23 01:33:23;;;;;;;2.10;0.60;;;23.70;99.90;;;;;;5042633;28;20216;-80
2023/01/23 01:35:55;;;;;;;2.38;0.77;;;23.70;99.90;;;;;;5047055;28;20204;-81
2023/01/23 01:38:26;;;;;;;1.98;0.90;;;23.70;99.90;;;;;;5049175;28;20189;-81
2023/01/23 01:40:59;;;;;;;3.20;0.85;;;23.60;99.90;;;;;;5042428;28;20203;-80
2023/01/23 01:43:34;;;;;;;2.22;1.05;;;23.60;99.90;;;;;;5050910;28;20299;-81
2023/01/23 01:46:11;;;;;;;3.65;2.22;;;23.60;99.90;;;;;;5050553;28;20226;-80
2023/01/23 01:48:49;;;;;;;4.78;1.23;;;23.60;99.90;;;;;;5048070;28;20223;-81
2023/01/23 01:51:26;;;;;;;3.30;1.00;;;23.50;99.90;;;;;;5051408;28;20205;-80
2023/01/23 01:54:03;;;;;;;2.38;0.93;;;23.60;99.90;;;;;;5048150;28;20275;-81
2023/01/23 01:56:41;;;;;;;3.20;0.70;;;23.70;99.90;;;;;;5056136;28;20671;-80
2023/01/23 01:59:16;;;;;;;2.28;0.70;;;23.70;99.90;;;;;;5047504;28;20647;-80
2023/01/23 02:01:51;;;;;;;4.38;0.80;;;23.70;99.90;;;;;;5046717;28;20240;-80
2023/01/23 02:04:23;;;;;;;2.40;0.70;;;23.70;99.90;;;;;;5055595;28;20617;-81
2023/01/23 02:06:55;;;;;;;2.83;0.60;;;23.70;99.90;;;;;;5064619;28;20720;-81
2023/01/23 02:09:27;;;;;;;2.58;0.90;;;23.80;99.90;;;;;;5061616;28;20228;-81
2023/01/23 02:12:01;;;;;;;2.22;0.80;;;23.90;99.90;;;;;;5067079;28;20208;-80
2023/01/23 02:14:32;;;;;;;2.80;0.93;;;23.90;99.90;;;;;;5063322;28;20283;-80
2023/01/23 02:17:03;;;;;;;4.47;1.20;;;24.00;99.90;;;;;;5041918;28;20239;-81
2023/01/23 02:19:45;;;;;;;3.40;0.70;;;24.00;99.90;;;;;;5069008;28;20312;-80
2023/01/23 02:22:28;;;;;;;3.15;1.00;;;24.10;99.90;;;;;;5046243;28;20201;-79
2023/01/23 02:25:05;;;;;;;3.58;1.05;;;24.10;99.90;;;;;;5063558;28;20196;-80
2023/01/23 02:27:39;;;;;;;2.13;1.00;;;24.10;99.90;;;;;;5064560;28;20279;-79
2023/01/23 02:30:12;;;;;;;3.80;1.10;;;24.20;99.90;;;;;;5064896;28;20201;-80
2023/01/23 02:32:43;;;;;;;2.28;0.82;;;24.20;99.90;;;;;;5052703;28;20224;-80
2023/01/23 02:35:24;;;;;;;2.88;0.57;;;24.30;99.90;;;;;;5039435;28;20232;-80
2023/01/23 02:37:57;;;;;;;2.28;0.63;;;24.30;99.90;;;;;;5038260;28;20198;-81
2023/01/23 02:40:35;;;;;;;2.50;0.63;;;24.40;99.90;;;;;;5041106;28;20203;-80
2023/01/23 02:43:10;;;;;;;2.20;0.60;;;24.40;99.90;;;;;;5048820;28;20221;-80
2023/01/23 02:45:42;;;;;;;4.68;0.93;;;24.60;99.90;;;;;;5051304;28;20195;-80
2023/01/23 02:48:13;;;;;;;3.15;1.00;;;24.60;99.90;;;;;;5046891;28;20193;-82
2023/01/23 02:50:45;;;;;;;1.60;0.70;;;24.70;99.90;;;;;;5050063;28;20280;-81
2023/01/23 02:53:16;;;;;;;1.80;0.70;;;24.70;99.90;;;;;;5050680;28;20205;-81
2023/01/23 02:55:47;;;;;;;5.28;1.10;;;24.80;99.90;;;;;;5046830;28;20226;-80
2023/01/23 03:01:07;;;;;;;2.38;0.40;;;25.00;99.90;;;;;;5041513;28;20224;-80
2023/01/23 03:03:41;;;;;;;2.50;0.50;;;25.00;99.90;;;;;;5051204;28;20220;-80
2023/01/23 03:06:13;;;;;;;2.53;0.60;;;25.00;99.90;;;;;;5044578;28;20691;-80
2023/01/23 03:08:48;;;;;;;1.42;0.30;;;25.10;99.90;;;;;;5049214;28;20213;-80
2023/01/23 03:11:20;;;;;;;2.45;0.47;;;25.10;99.90;;;;;;5062179;28;20199;-81
2023/01/23 03:13:53;;;;;;;1.25;0.55;;;25.10;99.90;;;;;;5059452;28;20224;-81
2023/01/23 03:16:24;;;;;;;1.95;0.52;;;25.20;99.90;;;;;;5054657;28;20217;-83
2023/01/23 03:18:56;;;;;;;0.80;0.40;;;25.20;99.90;;;;;;5054001;28;20196;-82
2023/01/23 03:21:27;;;;;;;1.50;0.50;;;25.30;99.90;;;;;;5047148;28;20255;-81
2023/01/23 03:23:58;;;;;;;1.77;0.50;;;25.30;99.90;;;;;;5052301;28;20256;-81
2023/01/23 03:26:30;;;;;;;2.50;0.85;;;25.40;99.90;;;;;;5056208;28;20695;-81
2023/01/23 03:31:49;;;;;;;2.58;0.82;;;25.40;99.90;;;;;;5062513;28;20208;-80
2023/01/23 03:34:21;;;;;;;2.28;0.73;;;25.50;99.90;;;;;;5066382;28;20338;-79
2023/01/23 03:36:52;;;;;;;1.67;0.75;;;25.60;99.90;;;;;;5078875;28;20244;-80
2023/01/23 03:42:10;;;;;;;0.65;0.40;;;25.60;99.90;;;;;;5050853;28;20204;-80
2023/01/23 03:44:44;;;;;;;2.05;0.68;;;25.60;99.90;;;;;;5056067;28;20209;-80
2023/01/23 03:47:15;;;;;;;3.40;0.60;;;25.60;99.90;;;;;;5052485;28;20224;-80
2023/01/23 03:49:46;;;;;;;3.83;0.70;;;25.50;99.90;;;;;;5059157;28;20207;-80
2023/01/23 03:52:17;;;;;;;1.30;0.70;;;25.50;99.90;;;;;;5042029;28;20232;-80
2023/01/23 03:54:48;;;;;;;2.20;0.50;;;25.50;99.90;;;;;;5061785;28;20268;-80
2023/01/23 03:57:19;;;;;;;1.63;0.68;;;25.60;99.90;;;;;;5056196;28;20657;-81
2023/01/23 03:59:52;;;;;;;1.73;0.40;;;25.70;99.90;;;;;;5043250;28;20804;-81
2023/01/23 04:02:23;;;;;;;2.67;0.73;;;25.80;99.90;;;;;;5053906;28;20309;-81
2023/01/23 04:04:54;;;;;;;2.22;0.63;;;25.80;99.90;;;;;;5051968;28;20232;-80
2023/01/23 04:07:25;;;;;;;1.23;0.40;;;25.80;99.90;;;;;;5065974;28;20207;-80
2023/01/23 04:09:56;;;;;;;3.00;0.50;;;25.80;99.90;;;;;;5054206;28;20200;-81
2023/01/23 04:12:28;;;;;;;0.85;0.40;;;25.90;99.90;;;;;;5053953;28;20193;-80
2023/01/23 04:15:01;;;;;;;0.68;0.30;;;25.90;99.90;;;;;;5052384;28;20204;-80
2023/01/23 04:17:32;;;;;;;2.53;0.70;;;26.00;99.90;;;;;;5051656;28;20192;-81
2023/01/23 04:20:03;;;;;;;2.90;0.70;;;26.00;99.90;;;;;;5044518;28;20226;-81
2023/01/23 04:22:34;;;;;;;5.00;0.70;;;26.10;99.90;;;;;;5048450;28;20664;-81
2023/01/23 04:25:05;;;;;;;1.30;0.50;;;26.10;99.90;;;;;;5063662;28;20283;-81
2023/01/23 04:27:36;;;;;;;4.60;0.90;;;26.10;99.90;;;;;;5052812;28;20204;-80
2023/01/23 04:30:10;;;;;;;2.25;0.73;;;26.20;99.90;;;;;;5061154;28;20727;-80
2023/01/23 04:32:42;;;;;;;1.55;0.43;;;26.30;99.90;;;;;;5054646;28;20283;-81
2023/01/23 04:35:14;;;;;;;3.22;0.70;;;26.30;99.90;;;;;;5062536;28;20307;-81
2023/01/23 04:37:45;;;;;;;4.75;0.60;;;26.40;99.90;;;;;;5058193;28;20261;-79
2023/01/23 04:40:16;;;;;;;2.03;0.50;;;26.50;99.90;;;;;;5060383;28;20195;-79
2023/01/23 04:42:49;;;;;;;6.10;0.95;;;26.50;99.90;;;;;;5063729;28;20228;-79
2023/01/23 04:45:22;;;;;;;5.22;0.73;;;26.50;99.90;;;;;;5052462;28;20261;-81
2023/01/23 04:47:53;;;;;;;2.78;0.75;;;26.60;99.90;;;;;;5055773;28;20220;-80
2023/01/23 04:50:24;;;;;;;2.25;0.70;;;26.60;99.90;;;;;;5054297;28;20238;-80
2023/01/23 04:52:57;;;;;;;5.00;1.17;;;26.80;99.90;;;;;;5056131;28;20739;-81
2023/01/23 04:55:28;;;;;;;2.38;0.85;;;26.90;99.90;;;;;;5059795;28;20221;-80
2023/01/23 04:58:00;;;;;;;4.40;0.98;;;26.80;99.90;;;;;;5048011;28;20193;-80
2023/01/23 05:00:32;;;;;;;4.70;1.13;;;26.70;99.90;;;;;;5044023;28;20199;-81
2023/01/23 05:03:04;;;;;;;2.85;0.85;;;26.80;99.90;;;;;;5045313;28;20204;-80
2023/01/23 05:05:35;;;;;;;5.70;1.00;;;26.80;99.90;;;;;;5045050;28;20205;-81
2023/01/23 05:08:06;;;;;;;2.78;0.82;;;26.80;99.90;;;;;;5044636;28;20240;-81
2023/01/23 05:10:37;;;;;;;3.67;0.85;;;26.80;99.90;;;;;;5038326;28;20327;-82
2023/01/23 05:13:09;;;;;;;5.85;0.98;;;26.80;99.90;;;;;;5045554;28;20284;-81
2023/01/23 05:15:42;;;;;;;5.45;1.00;;;26.80;99.90;;;;;;5040417;28;20274;-82
2023/01/23 05:18:13;;;;;;;3.63;1.05;;;26.70;99.90;;;;;;5048394;28;20664;-82
2023/01/23 05:20:45;;;;;;;3.35;0.73;;;26.90;99.90;;;;;;5036384;28;20204;-82
2023/01/23 05:23:16;;;;;;;3.30;0.80;;;27.00;99.90;;;;;;5047217;28;20217;-81
2023/01/23 05:25:48;;;;;;;6.55;0.80;;;27.20;99.90;;;;;;5046753;28;20566;-82
2023/01/23 05:28:19;;;;;;;5.20;0.82;;;27.30;99.90;;;;;;5045225;28;20197;-81
2023/01/23 05:30:52;;;;;;;4.20;0.93;;;27.30;99.90;;;;;;5048062;28;20286;-81
2023/01/23 05:33:24;;;;;;;2.47;0.98;;;27.30;99.90;;;;;;5048514;28;20196;-81
2023/01/23 05:35:55;;;;;;;4.80;1.20;;;27.40;99.90;;;;;;5043632;28;20205;-81
2023/01/23 05:38:26;;;;;;;4.25;0.90;;;27.40;99.90;;;;;;5047243;28;20726;-81
2023/01/23 05:40:57;;;;;;;3.10;0.80;;;27.50;99.90;;;;;;5046455;28;20208;-79
2023/01/23 05:43:28;;;;;;;2.72;0.70;;;27.60;99.90;;;;;;5043693;28;20228;-80
2023/01/23 05:46:02;;;;;;;3.75;1.00;;;27.60;99.90;;;;;;5052875;28;20295;-81
2023/01/23 05:48:33;;;;;;;2.25;0.70;;;27.80;99.90;;;;;;5055224;28;20271;-82
2023/01/23 05:51:06;;;;;;;3.90;0.70;;;27.80;99.90;;;;;;5046573;28;20197;-79
2023/01/23 05:53:37;;;;;;;2.95;0.80;;;27.80;99.90;;;;;;5037039;28;20201;-79
2023/01/23 05:56:13;;;;;;;2.90;0.65;;;28.00;99.90;;;;;;5039235;28;20221;-80
2023/01/23 05:58:44;;;;;;;5.13;1.00;;;28.20;99.90;;;;;;5062326;28;20290;-78
2023/01/23 06:01:16;;;;;;;5.63;0.80;;;28.40;99.90;;;;;;5049585;28;20280;-80
2023/01/23 06:03:47;;;;;;;1.63;0.50;;;28.40;99.90;;;;;;5049543;28;20232;-81
2023/01/23 06:06:20;;;;;;;1.73;0.70;;;28.20;99.90;;;;;;5048366;28;20189;-81
2023/01/23 06:08:52;;;;;;;1.95;0.50;;;28.00;99.90;;;;;;5039182;28;20555;-81
2023/01/23 06:11:23;;;;;;;2.40;0.80;;;27.60;99.90;;;;;;5048228;28;20544;-81
2023/01/23 06:13:54;;;;;;;2.13;0.75;;;27.30;99.90;;;;;;5046098;28;20232;-81
2023/01/23 06:16:27;;;;;;;3.28;0.80;;;27.00;99.90;;;;;;5044232;28;20200;-81
2023/01/23 06:18:58;;;;;;;2.60;0.85;;;27.30;99.90;;;;;;5047175;28;20627;-81
2023/01/23 06:21:29;;;;;;;3.75;0.70;;;28.00;99.90;;;;;;5045961;28;20275;-80
2023/01/23 06:24:02;;;;;;;2.55;0.65;;;28.30;99.90;;;;;;5039977;28;20219;-80
2023/01/23 06:26:32;;;;;;;2.70;0.68;;;28.10;99.90;;;;;;5045112;28;20199;-80
2023/01/23 06:29:03;;;;;;;3.97;0.80;;;28.10;99.90;;;;;;5044944;28;20291;-82
2023/01/23 06:31:36;;;;;;;5.15;0.70;;;27.80;99.90;;;;;;5040078;28;20227;-80
2023/01/23 06:34:08;;;;;;;2.35;0.80;;;27.30;99.90;;;;;;5049858;28;20201;-82
2023/01/23 06:36:39;;;;;;;5.43;0.77;;;27.10;99.90;;;;;;5050010;28;20299;-82
2023/01/23 06:39:13;;;;;;;4.07;0.77;;;26.80;99.90;;;;;;5051018;28;20192;-82
2023/01/23 06:41:44;;;;;;;1.88;0.90;;;26.60;99.90;;;;;;5058775;28;20232;-82
2023/01/23 06:44:18;;;;;;;2.00;0.63;;;26.40;99.90;;;;;;5038817;28;20229;-81
2023/01/23 06:46:52;;;;;;;2.10;0.65;;;26.20;99.90;;;;;;5045428;28;20197;-81
2023/01/23 06:49:23;;;;;;;3.20;0.68;;;26.10;99.90;;;;;;5050499;28;20205;-81
2023/01/23 06:51:54;;;;;;;3.33;0.80;;;26.00;99.90;;;;;;5042886;28;20204;-81
2023/01/23 06:54:25;;;;;;;1.77;0.70;;;25.90;99.90;;;;;;5063610;28;20287;-82
2023/01/23 06:56:55;;;;;;;4.03;0.88;;;26.00;99.90;;;;;;5048899;28;20251;-81
2023/01/23 06:59:26;;;;;;;3.58;1.10;;;26.10;99.90;;;;;;5041105;28;20203;-82
2023/01/23 07:02:00;;;;;;;2.65;0.75;;;26.50;99.90;;;;;;5052385;28;20275;-81
2023/01/23 07:04:30;;;;;;;6.93;1.08;;;26.90;99.90;;;;;;5052678;28;20224;-81
2023/01/23 07:07:02;;;;;;;4.50;0.90;;;26.90;99.90;;;;;;5050368;28;20213;-81
2023/01/23 07:09:33;;;;;;;4.50;1.20;;;26.80;99.90;;;;;;5052273;28;20658;-82
2023/01/23 07:12:05;;;;;;;3.58;0.90;;;27.10;99.90;;;;;;5034778;28;20251;-81
2023/01/23 07:14:36;;;;;;;5.75;1.10;;;28.10;99.90;;;;;;5047631;28;20242;-81
2023/01/23 07:17:09;;;;;;;5.78;1.33;;;29.20;99.90;;;;;;5035734;28;20659;-82
2023/01/23 07:19:40;;;;;;;9.65;1.40;;;30.00;99.90;;;;;;5039948;28;20205;-81
2023/01/23 07:22:11;;;;;;;4.10;0.93;;;30.30;99.90;;;;;;5049700;28;20189;-82
2023/01/23 07:24:42;;;;;;;3.25;0.90;;;29.90;99.90;;;;;;5050939;28;20220;-81
2023/01/23 07:27:13;;;;;;;4.25;1.00;;;30.00;99.90;;;;;;5055316;28;20200;-81
2023/01/23 07:29:44;;;;;;;2.88;0.90;;;30.60;99.90;;;;;;5064056;28;20201;-81
2023/01/23 07:32:17;;;;;;;2.72;0.90;;;31.20;99.90;;;;;;5040225;28;20201;-81
2023/01/23 07:34:48;;;;;;;1.95;0.70;;;31.80;99.90;;;;;;5051873;28;20204;-81
2023/01/23 07:37:19;;;;;;;1.35;0.60;;;32.00;99.90;;;;;;5051127;28;20315;-81
2023/01/23 07:39:50;;;;;;;2.47;0.88;;;32.20;98.80;;;;;;5043505;28;20668;-81
2023/01/23 07:42:21;;;;;;;1.98;0.60;;;32.00;98.70;;;;;;5037159;28;20185;-81
2023/01/23 07:44:52;;;;;;;3.63;0.68;;;32.10;97.50;;;;;;5047188;28;20224;-81
2023/01/23 07:47:25;;;;;;;2.33;0.60;;;32.50;96.00;;;;;;5047714;28;20292;-80
2023/01/23 07:49:56;;;;;;;2.47;1.17;;;32.60;92.80;;;;;;5049935;28;20192;-82
2023/01/23 07:52:27;;;;;;;4.28;0.82;;;31.90;93.40;;;;;;5052843;28;20192;-82
2023/01/23 07:54:58;;;;;;;2.97;0.60;;;31.80;93.70;;;;;;5041505;28;20628;-82
2023/01/23 07:57:29;;;;;;;3.15;0.70;;;31.70;94.90;;;;;;5073497;28;20211;-81
2023/01/23 08:00:00;;;;;;;3.08;0.90;;;32.10;94.80;;;;;;5053976;28;20265;-81
2023/01/23 08:02:33;;;;;;;4.72;0.80;;;32.20;94.30;;;;;;5045181;28;20198;-82
2023/01/23 08:05:04;;;;;;;3.03;0.60;;;31.90;96.00;;;;;;5044163;28;20228;-81
2023/01/23 08:07:35;;;;;;;2.85;1.38;;;31.70;96.30;;;;;;5051991;28;20202;-80
2023/01/23 08:10:07;;;;;;;3.17;0.85;;;31.30;98.00;;;;;;5047342;28;20367;-82
2023/01/23 08:12:38;;;;;;;2.58;0.70;;;30.80;99.90;;;;;;5053870;28;20219;-81
2023/01/23 08:15:10;;;;;;;2.78;0.80;;;30.30;99.90;;;;;;5049891;28;20197;-81
2023/01/23 08:17:42;;;;;;;2.30;0.88;;;29.80;99.90;;;;;;5054966;28;20199;-80
2023/01/23 08:20:14;;;;;;;1.95;1.20;;;29.30;99.90;;;;;;5050121;28;20252;-80
2023/01/23 08:22:45;;;;;;;3.38;0.95;;;28.90;99.90;;;;;;5048612;28;20279;-80
2023/01/23 08:25:16;;;;;;;2.72;1.00;;;28.50;99.90;;;;;;5050841;28;20220;-80
2023/01/23 08:27:47;;;;;;;2.22;0.90;;;28.00;99.90;;;;;;5050899;28;20205;-79
2023/01/23 08:30:18;;;;;;;2.30;1.30;;;27.70;99.90;;;;;;5052036;28;20207;-81
2023/01/23 08:32:51;;;;;;;2.67;1.17;;;27.50;99.90;;;;;;5043879;28;20782;-81
2023/01/23 08:35:22;;;;;;;2.70;1.02;;;27.20;99.90;;;;;;5034233;28;20200;-81
2023/01/23 08:37:53;;;;;;;4.30;1.00;;;27.00;99.90;;;;;;5032583;28;20595;-80
2023/01/23 08:40:25;;;;;;;4.75;1.30;;;26.80;99.90;;;;;;5039432;28;20232;-80
2023/01/23 08:42:56;;;;;;;3.17;1.00;;;26.50;99.90;;;;;;5051926;28;20570;-80
2023/01/23 08:45:27;;;;;;;2.40;0.80;;;26.40;99.90;;;;;;5056646;28;20220;-81
2023/01/23 08:48:01;;;;;;;2.47;0.73;;;26.20;99.90;;;;;;5047168;28;20200;-80
2023/01/23 08:50:35;;;;;;;3.05;0.90;;;26.10;99.90;;;;;;5044130;28;20200;-81
2023/01/23 08:53:06;;;;;;;2.63;0.80;;;25.90;99.90;;;;;;5038844;28;20209;-80
2023/01/23 08:55:37;;;;;;;1.65;0.57;;;25.70;99.90;;;;;;5058487;28;20235;-80
2023/01/23 08:58:11;;;;;;;4.47;0.93;;;25.50;99.90;;;;;;5070909;28;20196;-81
2023/01/23 09:00:42;;;;;;;2.17;0.90;;;25.40;99.90;;;;;;5061232;28;20248;-80
2023/01/23 09:03:15;;;;;;;2.78;0.88;;;25.30;99.90;;;;;;5057502;28;20199;-81
2023/01/23 09:05:46;;;;;;;3.83;1.20;;;25.30;99.90;;;;;;5049171;28;20239;-81
2023/01/23 09:08:17;;;;;;;3.13;1.23;;;25.20;99.90;;;;;;5050007;28;20203;-81
2023/01/23 09:10:48;;;;;;;1.88;0.82;;;25.10;99.90;;;;;;5048599;28;20594;-81
2023/01/23 09:13:19;;;;;;;2.00;0.80;;;25.10;99.90;;;;;;5030990;28;20199;-80
2023/01/23 09:15:51;;;;;;;2.92;1.02;;;25.00;99.90;;;;;;5047752;28;20612;-82
2023/01/23 09:18:24;;;;;;;1.42;0.57;;;24.90;99.90;;;;;;5031463;28;20193;-81
2023/01/23 09:20:55;;;;;;;3.83;0.95;;;24.90;99.90;;;;;;5044038;28;20284;-81
2023/01/23 09:23:27;;;;;;;1.63;0.60;;;24.80;99.90;;;;;;5050674;28;20196;-82
2023/01/23 09:26:03;;;;;;;1.88;0.75;;;24.70;99.90;;;;;;5050704;28;20228;-82
2023/01/23 09:28:34;;;;;;;1.73;0.60;;;24.70;99.90;;;;;;5051787;28;20200;-81
2023/01/23 09:31:09;;;;;;;2.70;0.93;;;24.60;99.90;;;;;;5050296;28;20201;-81
2023/01/23 09:33:43;;;;;;;2.33;0.50;;;24.60;99.90;;;;;;5050282;28;20188;-81
2023/01/23 09:36:14;;;;;;;2.45;0.55;;;24.60;99.90;;;;;;5050516;28;20207;-81
2023/01/23 09:38:44;;;;;;;2.88;0.70;;;24.50;99.90;;;;;;5051876;28;20573;-81
2023/01/23 09:41:20;;;;;;;3.55;0.70;;;24.50;99.90;;;;;;5049080;28;20655;-81
2023/01/23 09:43:59;;;;;;;3.83;0.77;;;24.50;99.90;;;;;;5048728;28;20197;-80
2023/01/23 09:46:34;;;;;;;2.80;0.70;;;24.40;99.90;;;;;;5032241;28;20232;-82
2023/01/23 09:49:15;;;;;;;2.25;0.70;;;24.40;99.90;;;;;;5042520;28;20195;-81
2023/01/23 09:51:55;;;;;;;3.40;0.90;;;24.40;99.90;;;;;;5047585;28;20238;-82
2023/01/23 09:54:36;;;;;;;2.17;0.95;;;24.40;99.90;;;;;;5048059;28;20208;-81
2023/01/23 09:57:13;;;;;;;4.65;1.08;;;24.40;99.90;;;;;;5028341;28;20689;-81
2023/01/23 09:59:49;;;;;;;2.63;0.85;;;24.40;99.90;;;;;;5025866;28;20540;-80
2023/01/23 10:02:22;;;;;;;2.65;0.80;;;24.30;99.90;;;;;;5030712;28;20197;-81
2023/01/23 10:04:57;;;;;;;6.07;1.30;;;24.30;99.90;;;;;;5041453;28;20214;-81
2023/01/23 10:07:47;;;;;;;1.88;0.80;;;24.30;99.90;;;;;;5030299;28;20197;-81
2023/01/23 10:10:43;;;;;;;2.83;1.00;;;24.30;99.90;;;;;;5030721;28;20205;-82
2023/01/23 10:13:19;;;;;;;3.65;1.13;;;24.30;99.90;;;;;;5032181;28;20284;-81
2023/01/23 10:16:12;;;;;;;3.15;1.20;;;24.20;99.90;;;;;;5027019;28;20249;-81
2023/01/23 10:18:53;;;;;;;2.42;1.00;;;24.20;99.90;;;;;;5034575;28;20280;-81
2023/01/23 10:21:31;;;;;;;1.63;0.80;;;24.20;99.90;;;;;;5025811;28;20201;-81
2023/01/23 10:24:15;;;;;;;2.75;1.23;;;24.20;99.90;;;;;;5028348;28;20285;-81
2023/01/23 10:26:48;;;;;;;3.63;0.90;;;24.10;99.90;;;;;;5033379;28;21824;-81
2023/01/23 10:29:33;;;;;;;4.35;0.90;;;24.10;99.90;;;;;;5023853;28;20193;-81
2023/01/23 10:32:05;;;;;;;3.13;1.05;;;24.10;99.90;;;;;;5028038;28;20197;-81
2023/01/23 10:34:45;;;;;;;2.47;1.08;;;24.10;99.90;;;;;;5029302;28;20293;-81
2023/01/23 10:37:22;;;;;;;3.42;1.10;;;24.00;99.90;;;;;;5032018;28;20221;-81
2023/01/23 10:39:59;;;;;;;6.25;1.00;;;24.00;99.90;;;;;;5029332;28;20197;-82
2023/01/23 10:42:30;;;;;;;1.98;0.93;;;23.90;99.90;;;;;;5024303;28;20208;-81
2023/01/23 10:45:01;;;;;;;2.78;1.00;;;23.90;99.90;;;;;;5033623;28;20695;-81
2023/01/23 10:47:36;;;;;;;4.03;1.05;;;23.90;99.90;;;;;;5036839;28;20201;-81
2023/01/23 10:50:08;;;;;;;3.90;0.93;;;23.90;99.90;;;;;;5033899;28;20193;-81
2023/01/23 10:52:43;;;;;;;3.30;1.00;;;23.90;99.90;;;;;;5030257;28;21827;-82
2023/01/23 10:55:31;;;;;;;4.40;0.95;;;23.90;99.90;;;;;;5021697;28;20236;-82
2023/01/23 10:58:05;;;;;;;3.75;1.20;;;23.80;99.90;;;;;;5024460;28;20537;-82
2023/01/23 11:00:38;;;;;;;2.92;1.08;;;23.80;99.90;;;;;;5033586;28;20615;-82
2023/01/23 11:03:31;;;;;;;3.63;0.98;;;23.70;99.90;;;;;;5033147;28;20217;-81
2023/01/23 11:06:06;;;;;;;3.53;1.00;;;23.70;99.90;;;;;;5029098;28;20309;-82
2023/01/23 11:08:40;;;;;;;4.57;1.10;;;23.70;99.90;;;;;;5032971;28;20283;-84
2023/01/23 11:11:26;;;;;;;7.30;1.10;;;23.70;99.90;;;;;;5034223;28;20260;-82
2023/01/23 11:14:09;;;;;;;4.50;1.00;;;23.70;99.90;;;;;;5033067;28;20193;-81
2023/01/23 11:16:41;;;;;;;3.90;1.20;;;23.60;99.90;;;;;;5031168;28;20201;-81
2023/01/23 11:19:26;;;;;;;6.50;1.02;;;23.60;99.90;;;;;;5025632;28;20197;-82
2023/01/23 11:22:01;;;;;;;5.43;0.82;;;23.60;99.90;;;;;;5023568;28;20756;-81
2023/01/23 11:24:39;;;;;;;2.88;1.10;;;23.60;99.90;;;;;;5032482;28;20567;-82
2023/01/23 11:27:23;;;;;;;3.53;1.25;;;23.60;99.90;;;;;;5038940;28;20228;-81
2023/01/23 11:30:24;;;;;;;6.32;1.17;;;23.60;99.90;;;;;;5029692;28;20201;-82
2023/01/23 11:33:00;;;;;;;4.40;1.00;;;23.60;99.90;;;;;;5031824;28;20279;-82
2023/01/23 11:36:04;;;;;;;3.08;1.02;;;23.60;99.90;;;;;;5018364;28;20200;-81
2023/01/23 11:38:41;;;;;;;5.00;1.13;;;23.60;99.90;;;;;;5048783;28;20217;-81
2023/01/23 11:41:15;;;;;;;2.13;0.80;;;23.50;99.90;;;;;;5029312;28;20200;-82
2023/01/23 11:43:46;;;;;;;3.45;0.80;;;23.50;99.90;;;;;;5030288;28;20297;-80
2023/01/23 11:46:38;;;;;;;2.88;0.90;;;23.50;99.90;;;;;;5029701;28;20229;-81
2023/01/23 11:49:23;;;;;;;3.92;0.90;;;23.50;99.90;;;;;;5024923;28;20199;-82
2023/01/23 11:52:09;;;;;;;4.43;1.02;;;23.50;99.90;;;;;;5029824;28;20200;-81
2023/01/23 11:54:59;;;;;;;3.53;1.17;;;23.50;99.90;;;;;;5021712;28;20717;-82
2023/01/23 11:57:41;;;;;;;2.35;0.73;;;23.50;99.90;;;;;;5016473;28;20197;-81
2023/01/23 12:00:28;;;;;;;2.60;0.65;;;23.40;99.90;;;;;;5018998;28;20715;-82
2023/01/23 12:03:28;;;;;;;3.35;0.80;;;23.50;99.90;;;;;;5013136;28;20195;-82
2023/01/23 12:09:04;;;;;;;4.82;0.90;;;23.40;99.90;;;;;;5092862;23;20240;-82
2023/01/23 12:11:44;;;;;;;1.80;0.70;;;23.30;99.90;;;;;;5069420;28;20263;-83
2023/01/23 12:14:22;;;;;;;3.33;0.70;;;23.30;99.90;;;;;;5062078;28;20669;-82
2023/01/23 12:17:15;;;;;;;2.92;0.70;;;23.30;99.90;;;;;;5074153;28;20200;-82
2023/01/23 12:20:14;;;;;;;1.10;0.60;;;23.30;99.90;;;;;;5071183;28;20192;-82
2023/01/23 12:22:57;;;;;;;1.67;0.70;;;23.30;99.90;;;;;;5061827;28;20196;-81
2023/01/23 12:25:35;;;;;;;2.70;0.60;;;23.30;99.90;;;;;;5070072;28;20266;-82
2023/01/23 12:28:22;;;;;;;2.13;0.70;;;23.30;99.90;;;;;;5066371;28;20188;-81
2023/01/23 12:31:06;;;;;;;2.92;0.90;;;23.30;99.90;;;;;;5060227;28;20279;-82
2023/01/23 12:34:05;;;;;;;1.90;0.65;;;23.30;99.90;;;;;;5069824;28;20285;-80
2023/01/23 12:37:05;;;;;;;3.28;0.90;;;23.40;99.90;;;;;;5063846;28;20199;-81
2023/01/23 12:40:08;;;;;;;3.65;1.00;;;23.30;99.90;;;;;;5046154;28;20221;-82
2023/01/23 12:42:51;;;;;;;4.05;0.90;;;23.30;99.90;;;;;;5008905;28;20714;-82
2023/01/23 12:45:31;;;;;;;5.43;0.95;;;23.30;99.90;;;;;;5047201;28;20196;-82
2023/01/23 12:48:12;;;;;;;3.80;0.88;;;23.30;99.90;;;;;;5044084;28;20709;-82
2023/01/23 12:50:51;;;;;;;3.80;0.90;;;23.30;99.90;;;;;;5048459;28;20212;-81
2023/01/23 12:53:23;;;;;;;4.55;1.20;;;23.30;99.90;;;;;;5049336;28;20303;-81
2023/01/23 12:56:00;;;;;;;3.67;0.95;;;23.30;99.90;;;;;;5041287;28;20217;-83
2023/01/23 12:58:35;;;;;;;6.15;1.00;;;23.30;99.90;;;;;;5044500;28;20192;-84
2023/01/23 13:01:22;;;;;;;3.75;0.98;;;23.20;99.90;;;;;;5044028;28;20215;-84
2023/01/23 13:04:13;;;;;;;5.22;0.70;;;23.20;99.90;;;;;;5040687;28;20292;-84
2023/01/23 13:07:06;;;;;;;2.65;0.80;;;23.20;99.90;;;;;;5046898;28;20212;-82
2023/01/23 13:09:48;;;;;;;2.53;0.82;;;23.20;99.90;;;;;;5047046;28;20205;-81
2023/01/23 13:12:24;;;;;;;4.68;0.95;;;23.20;99.90;;;;;;5024908;28;20182;-83
2023/01/23 13:14:58;;;;;;;2.58;0.70;;;23.20;99.90;;;;;;5028929;28;20203;-83
2023/01/23 13:17:38;;;;;;;3.30;0.90;;;23.10;99.90;;;;;;5032473;28;20228;-82
2023/01/23 13:23:25;;;;;;;2.42;0.85;;;23.10;99.90;;;;;;5049343;28;20277;-82
2023/01/23 13:26:36;;;;;;;4.63;1.10;;;23.00;99.90;;;;;;5050310;28;20286;-83
2023/01/23 13:29:29;;;;;;;5.10;1.33;;;23.00;99.90;;;;;;5039572;28;20193;-82
2023/01/23 13:32:23;;;;;;;4.63;1.05;;;23.00;99.90;;;;;;5041274;28;20192;-82
2023/01/23 13:34:54;;;;;;;3.15;0.98;;;22.90;99.90;;;;;;5048960;28;20212;-81
2023/01/23 13:37:53;;;;;;;3.78;0.93;;;22.90;99.90;;;;;;5047196;28;20209;-81
2023/01/23 13:40:25;;;;;;;4.30;1.00;;;22.90;99.90;;;;;;5046412;28;20196;-83
2023/01/23 13:42:56;;;;;;;2.05;0.80;;;22.80;99.90;;;;;;5047241;28;20216;-82